sensor_id;sensor_type;location;lat;lon;timestamp;P1;durP1;ratioP1;P2;durP2;ratioP2
44137;SDS011;29800;55.942;37.314;2023-03-13T00:02:16;1.50;;;0.80;;
44137;SDS011;29800;55.942;37.314;2023-03-13T00:04:42;0.90;;;0.52;;
44137;SDS011;29800;55.942;37.314;2023-03-13T00:07:08;1.17;;;0.57;;
44137;SDS011;29800;55.942;37.314;2023-03-13T00:09:35;1.27;;;0.73;;
44137;SDS011;29800;55.942;37.314;2023-03-13T00:12:01;2.25;;;0.93;;
44137;SDS011;29800;55.942;37.314;2023-03-13T00:14:28;1.17;;;0.73;;
44137;SDS011;29800;55.942;37.314;2023-03-13T00:16:54;1.73;;;0.68;;
44137;SDS011;29800;55.942;37.314;2023-03-13T00:19:21;1.77;;;0.90;;
44137;SDS011;29800;55.942;37.314;2023-03-13T00:21:47;1.20;;;0.63;;
44137;SDS011;29800;55.942;37.314;2023-03-13T00:24:13;1.15;;;0.68;;
44137;SDS011;29800;55.942;37.314;2023-03-13T00:26:39;1.63;;;0.70;;
44137;SDS011;29800;55.942;37.314;2023-03-13T00:29:06;2.33;;;0.60;;
44137;SDS011;29800;55.942;37.314;2023-03-13T00:31:32;1.35;;;0.73;;
44137;SDS011;29800;55.942;37.314;2023-03-13T00:33:59;1.42;;;0.52;;
44137;SDS011;29800;55.942;37.314;2023-03-13T00:36:27;1.95;;;0.90;;
44137;SDS011;29800;55.942;37.314;2023-03-13T00:38:56;1.33;;;0.70;;
44137;SDS011;29800;55.942;37.314;2023-03-13T00:41:24;1.30;;;0.60;;
44137;SDS011;29800;55.942;37.314;2023-03-13T00:43:53;1.92;;;0.80;;
44137;SDS011;29800;55.942;37.314;2023-03-13T00:46:20;2.03;;;0.85;;
44137;SDS011;29800;55.942;37.314;2023-03-13T00:48:48;0.90;;;0.63;;
44137;SDS011;29800;55.942;37.314;2023-03-13T00:51:16;1.35;;;0.70;;
44137;SDS011;29800;55.942;37.314;2023-03-13T00:53:44;0.95;;;0.60;;
44137;SDS011;29800;55.942;37.314;2023-03-13T00:56:12;1.30;;;0.63;;
44137;SDS011;29800;55.942;37.314;2023-03-13T00:58:40;1.55;;;0.85;;
44137;SDS011;29800;55.942;37.314;2023-03-13T01:03:46;2.35;;;0.70;;
44137;SDS011;29800;55.942;37.314;2023-03-13T01:06:18;1.08;;;0.60;;
44137;SDS011;29800;55.942;37.314;2023-03-13T01:08:47;3.13;;;0.80;;
44137;SDS011;29800;55.942;37.314;2023-03-13T01:11:14;1.15;;;0.70;;
44137;SDS011;29800;55.942;37.314;2023-03-13T01:13:42;1.35;;;0.60;;
44137;SDS011;29800;55.942;37.314;2023-03-13T01:18:37;1.88;;;1.02;;
44137;SDS011;29800;55.942;37.314;2023-03-13T01:21:05;2.60;;;1.08;;
44137;SDS011;29800;55.942;37.314;2023-03-13T01:23:32;1.25;;;0.77;;
44137;SDS011;29800;55.942;37.314;2023-03-13T01:25:59;2.55;;;1.02;;
44137;SDS011;29800;55.942;37.314;2023-03-13T01:28:25;1.40;;;0.80;;
44137;SDS011;29800;55.942;37.314;2023-03-13T01:30:53;1.30;;;0.60;;
44137;SDS011;29800;55.942;37.314;2023-03-13T01:33:19;1.33;;;0.63;;
44137;SDS011;29800;55.942;37.314;2023-03-13T01:35:46;1.40;;;0.60;;
44137;SDS011;29800;55.942;37.314;2023-03-13T01:38:12;1.58;;;0.60;;
44137;SDS011;29800;55.942;37.314;2023-03-13T01:40:42;1.92;;;0.73;;
44137;SDS011;29800;55.942;37.314;2023-03-13T01:43:22;1.33;;;0.60;;
44137;SDS011;29800;55.942;37.314;2023-03-13T01:46:02;1.15;;;0.70;;
44137;SDS011;29800;55.942;37.314;2023-03-13T01:51:36;1.30;;;0.68;;
44137;SDS011;29800;55.942;37.314;2023-03-13T01:54:19;0.82;;;0.52;;
44137;SDS011;29800;55.942;37.314;2023-03-13T01:59:22;2.00;;;0.80;;
44137;SDS011;29800;55.942;37.314;2023-03-13T02:01:53;1.17;;;0.60;;
44137;SDS011;29800;55.942;37.314;2023-03-13T02:04:23;0.68;;;0.45;;
44137;SDS011;29800;55.942;37.314;2023-03-13T02:07:01;1.27;;;0.50;;
44137;SDS011;29800;55.942;37.314;2023-03-13T02:09:32;0.82;;;0.60;;
44137;SDS011;29800;55.942;37.314;2023-03-13T02:12:02;0.85;;;0.52;;
44137;SDS011;29800;55.942;37.314;2023-03-13T02:14:34;1.83;;;0.65;;
44137;SDS011;29800;55.942;37.314;2023-03-13T02:17:04;2.40;;;0.70;;
44137;SDS011;29800;55.942;37.314;2023-03-13T02:19:41;1.33;;;0.65;;
44137;SDS011;29800;55.942;37.314;2023-03-13T02:27:51;1.70;;;0.85;;
44137;SDS011;29800;55.942;37.314;2023-03-13T02:30:22;2.70;;;0.73;;
44137;SDS011;29800;55.942;37.314;2023-03-13T02:32:49;0.90;;;0.57;;
44137;SDS011;29800;55.942;37.314;2023-03-13T02:35:16;1.00;;;0.60;;
44137;SDS011;29800;55.942;37.314;2023-03-13T02:37:47;1.20;;;0.60;;
44137;SDS011;29800;55.942;37.314;2023-03-13T02:40:23;1.25;;;0.70;;
44137;SDS011;29800;55.942;37.314;2023-03-13T02:42:54;1.08;;;0.77;;
44137;SDS011;29800;55.942;37.314;2023-03-13T02:45:21;0.88;;;0.57;;
44137;SDS011;29800;55.942;37.314;2023-03-13T02:47:48;0.88;;;0.65;;
44137;SDS011;29800;55.942;37.314;2023-03-13T02:50:14;1.60;;;0.70;;
44137;SDS011;29800;55.942;37.314;2023-03-13T02:52:42;1.30;;;0.80;;
44137;SDS011;29800;55.942;37.314;2023-03-13T02:55:31;1.08;;;0.50;;
44137;SDS011;29800;55.942;37.314;2023-03-13T02:58:03;2.42;;;0.68;;
44137;SDS011;29800;55.942;37.314;2023-03-13T03:00:34;2.47;;;0.90;;
44137;SDS011;29800;55.942;37.314;2023-03-13T03:03:00;1.15;;;0.70;;
44137;SDS011;29800;55.942;37.314;2023-03-13T03:05:26;1.33;;;0.60;;
44137;SDS011;29800;55.942;37.314;2023-03-13T03:07:53;1.38;;;0.95;;
44137;SDS011;29800;55.942;37.314;2023-03-13T03:10:19;4.72;;;0.90;;
44137;SDS011;29800;55.942;37.314;2023-03-13T03:12:45;0.85;;;0.63;;
44137;SDS011;29800;55.942;37.314;2023-03-13T03:15:12;1.67;;;0.80;;
44137;SDS011;29800;55.942;37.314;2023-03-13T03:17:42;1.77;;;0.80;;
44137;SDS011;29800;55.942;37.314;2023-03-13T03:20:09;1.63;;;0.90;;
44137;SDS011;29800;55.942;37.314;2023-03-13T03:22:41;1.40;;;0.70;;
44137;SDS011;29800;55.942;37.314;2023-03-13T03:25:07;1.85;;;1.10;;
44137;SDS011;29800;55.942;37.314;2023-03-13T03:27:34;2.75;;;0.90;;
44137;SDS011;29800;55.942;37.314;2023-03-13T03:30:03;1.08;;;0.60;;
44137;SDS011;29800;55.942;37.314;2023-03-13T03:32:32;2.28;;;1.00;;
44137;SDS011;29800;55.942;37.314;2023-03-13T03:34:59;2.63;;;0.80;;
44137;SDS011;29800;55.942;37.314;2023-03-13T03:37:25;1.95;;;0.90;;
44137;SDS011;29800;55.942;37.314;2023-03-13T03:39:51;1.80;;;0.85;;
44137;SDS011;29800;55.942;37.314;2023-03-13T03:42:18;2.53;;;1.10;;
44137;SDS011;29800;55.942;37.314;2023-03-13T03:44:44;1.27;;;0.77;;
44137;SDS011;29800;55.942;37.314;2023-03-13T03:47:12;1.98;;;0.95;;
44137;SDS011;29800;55.942;37.314;2023-03-13T03:49:43;1.25;;;0.70;;
44137;SDS011;29800;55.942;37.314;2023-03-13T03:52:11;2.47;;;1.27;;
44137;SDS011;29800;55.942;37.314;2023-03-13T03:54:40;2.13;;;0.95;;
44137;SDS011;29800;55.942;37.314;2023-03-13T03:57:06;1.83;;;1.00;;
44137;SDS011;29800;55.942;37.314;2023-03-13T03:59:34;1.77;;;0.82;;
44137;SDS011;29800;55.942;37.314;2023-03-13T04:02:03;1.33;;;1.00;;
44137;SDS011;29800;55.942;37.314;2023-03-13T04:04:30;2.28;;;1.00;;
44137;SDS011;29800;55.942;37.314;2023-03-13T04:07:07;1.67;;;0.90;;
44137;SDS011;29800;55.942;37.314;2023-03-13T04:09:34;1.83;;;0.90;;
44137;SDS011;29800;55.942;37.314;2023-03-13T04:12:02;1.92;;;1.10;;
44137;SDS011;29800;55.942;37.314;2023-03-13T04:14:33;1.10;;;0.80;;
44137;SDS011;29800;55.942;37.314;2023-03-13T04:17:03;2.65;;;0.82;;
44137;SDS011;29800;55.942;37.314;2023-03-13T04:19:29;1.95;;;0.80;;
44137;SDS011;29800;55.942;37.314;2023-03-13T04:21:56;1.70;;;0.63;;
44137;SDS011;29800;55.942;37.314;2023-03-13T04:24:22;1.63;;;0.77;;
44137;SDS011;29800;55.942;37.314;2023-03-13T04:26:48;1.40;;;0.70;;
44137;SDS011;29800;55.942;37.314;2023-03-13T04:29:15;1.80;;;0.80;;
44137;SDS011;29800;55.942;37.314;2023-03-13T04:32:04;1.70;;;0.80;;
44137;SDS011;29800;55.942;37.314;2023-03-13T04:34:44;3.65;;;1.50;;
44137;SDS011;29800;55.942;37.314;2023-03-13T04:37:10;2.35;;;1.10;;
44137;SDS011;29800;55.942;37.314;2023-03-13T04:39:56;2.90;;;0.90;;
44137;SDS011;29800;55.942;37.314;2023-03-13T04:42:55;5.63;;;2.55;;
44137;SDS011;29800;55.942;37.314;2023-03-13T04:45:40;3.40;;;2.38;;
44137;SDS011;29800;55.942;37.314;2023-03-13T04:48:27;3.67;;;1.40;;
44137;SDS011;29800;55.942;37.314;2023-03-13T04:51:01;3.72;;;1.23;;
44137;SDS011;29800;55.942;37.314;2023-03-13T04:53:38;3.15;;;1.42;;
44137;SDS011;29800;55.942;37.314;2023-03-13T04:56:21;3.28;;;1.30;;
44137;SDS011;29800;55.942;37.314;2023-03-13T04:59:24;1.95;;;1.00;;
44137;SDS011;29800;55.942;37.314;2023-03-13T05:02:11;3.08;;;1.08;;
44137;SDS011;29800;55.942;37.314;2023-03-13T05:04:46;2.17;;;0.98;;
44137;SDS011;29800;55.942;37.314;2023-03-13T05:07:44;2.58;;;1.00;;
44137;SDS011;29800;55.942;37.314;2023-03-13T05:10:33;2.30;;;1.00;;
44137;SDS011;29800;55.942;37.314;2023-03-13T05:13:26;2.03;;;0.90;;
44137;SDS011;29800;55.942;37.314;2023-03-13T05:16:11;2.80;;;1.00;;
44137;SDS011;29800;55.942;37.314;2023-03-13T05:19:13;2.28;;;0.80;;
44137;SDS011;29800;55.942;37.314;2023-03-13T05:22:00;1.65;;;0.80;;
44137;SDS011;29800;55.942;37.314;2023-03-13T05:24:56;2.80;;;1.33;;
44137;SDS011;29800;55.942;37.314;2023-03-13T05:27:29;1.75;;;0.90;;
44137;SDS011;29800;55.942;37.314;2023-03-13T05:30:14;2.30;;;0.98;;
44137;SDS011;29800;55.942;37.314;2023-03-13T05:32:59;2.42;;;0.90;;
44137;SDS011;29800;55.942;37.314;2023-03-13T05:35:52;4.97;;;1.95;;
44137;SDS011;29800;55.942;37.314;2023-03-13T05:38:37;4.47;;;1.73;;
44137;SDS011;29800;55.942;37.314;2023-03-13T05:41:29;2.53;;;1.20;;
44137;SDS011;29800;55.942;37.314;2023-03-13T05:44:31;1.88;;;0.90;;
44137;SDS011;29800;55.942;37.314;2023-03-13T05:47:30;1.40;;;0.95;;
44137;SDS011;29800;55.942;37.314;2023-03-13T05:50:26;1.85;;;1.00;;
44137;SDS011;29800;55.942;37.314;2023-03-13T05:53:17;1.92;;;0.90;;
44137;SDS011;29800;55.942;37.314;2023-03-13T05:56:01;4.10;;;0.98;;
44137;SDS011;29800;55.942;37.314;2023-03-13T05:58:46;2.15;;;0.90;;
44137;SDS011;29800;55.942;37.314;2023-03-13T06:01:32;1.77;;;0.90;;
44137;SDS011;29800;55.942;37.314;2023-03-13T06:04:07;2.90;;;1.13;;
44137;SDS011;29800;55.942;37.314;2023-03-13T06:06:36;1.88;;;0.88;;
44137;SDS011;29800;55.942;37.314;2023-03-13T06:09:03;1.48;;;0.82;;
44137;SDS011;29800;55.942;37.314;2023-03-13T06:11:32;1.45;;;0.80;;
44137;SDS011;29800;55.942;37.314;2023-03-13T06:13:59;2.20;;;0.98;;
44137;SDS011;29800;55.942;37.314;2023-03-13T06:16:34;2.08;;;1.13;;
44137;SDS011;29800;55.942;37.314;2023-03-13T06:19:13;1.98;;;0.85;;
44137;SDS011;29800;55.942;37.314;2023-03-13T06:21:40;3.17;;;1.00;;
44137;SDS011;29800;55.942;37.314;2023-03-13T06:24:06;3.40;;;1.10;;
44137;SDS011;29800;55.942;37.314;2023-03-13T06:26:33;1.95;;;1.02;;
44137;SDS011;29800;55.942;37.314;2023-03-13T06:28:59;2.80;;;1.10;;
44137;SDS011;29800;55.942;37.314;2023-03-13T06:31:25;2.08;;;0.90;;
44137;SDS011;29800;55.942;37.314;2023-03-13T06:33:52;4.28;;;1.52;;
44137;SDS011;29800;55.942;37.314;2023-03-13T06:36:19;3.50;;;2.00;;
44137;SDS011;29800;55.942;37.314;2023-03-13T06:38:46;3.13;;;1.67;;
44137;SDS011;29800;55.942;37.314;2023-03-13T06:41:12;3.17;;;1.20;;
44137;SDS011;29800;55.942;37.314;2023-03-13T06:43:39;2.25;;;0.82;;
44137;SDS011;29800;55.942;37.314;2023-03-13T06:46:06;1.30;;;0.82;;
44137;SDS011;29800;55.942;37.314;2023-03-13T06:48:35;3.20;;;0.80;;
44137;SDS011;29800;55.942;37.314;2023-03-13T06:51:01;3.45;;;1.10;;
44137;SDS011;29800;55.942;37.314;2023-03-13T06:53:28;2.20;;;0.90;;
44137;SDS011;29800;55.942;37.314;2023-03-13T06:55:54;1.75;;;0.90;;
44137;SDS011;29800;55.942;37.314;2023-03-13T06:58:20;2.17;;;1.00;;
44137;SDS011;29800;55.942;37.314;2023-03-13T07:00:46;2.15;;;0.93;;
44137;SDS011;29800;55.942;37.314;2023-03-13T07:03:12;3.40;;;1.45;;
44137;SDS011;29800;55.942;37.314;2023-03-13T07:05:39;1.63;;;0.90;;
44137;SDS011;29800;55.942;37.314;2023-03-13T07:08:05;1.10;;;0.70;;
44137;SDS011;29800;55.942;37.314;2023-03-13T07:10:31;1.75;;;1.05;;
44137;SDS011;29800;55.942;37.314;2023-03-13T07:12:57;1.75;;;0.85;;
44137;SDS011;29800;55.942;37.314;2023-03-13T07:15:24;1.35;;;0.77;;
44137;SDS011;29800;55.942;37.314;2023-03-13T07:17:50;2.10;;;0.95;;
44137;SDS011;29800;55.942;37.314;2023-03-13T07:20:16;1.73;;;0.77;;
44137;SDS011;29800;55.942;37.314;2023-03-13T07:22:42;2.50;;;0.95;;
44137;SDS011;29800;55.942;37.314;2023-03-13T07:25:09;2.35;;;1.00;;
44137;SDS011;29800;55.942;37.314;2023-03-13T07:27:35;2.38;;;1.05;;
44137;SDS011;29800;55.942;37.314;2023-03-13T07:30:03;3.25;;;0.98;;
44137;SDS011;29800;55.942;37.314;2023-03-13T07:32:34;2.03;;;1.00;;
44137;SDS011;29800;55.942;37.314;2023-03-13T07:35:00;2.42;;;0.95;;
44137;SDS011;29800;55.942;37.314;2023-03-13T07:37:28;3.10;;;0.90;;
44137;SDS011;29800;55.942;37.314;2023-03-13T07:39:55;2.17;;;1.10;;
44137;SDS011;29800;55.942;37.314;2023-03-13T07:42:21;4.22;;;1.02;;
44137;SDS011;29800;55.942;37.314;2023-03-13T07:44:47;2.17;;;0.98;;
44137;SDS011;29800;55.942;37.314;2023-03-13T07:47:13;1.48;;;0.88;;
44137;SDS011;29800;55.942;37.314;2023-03-13T07:49:40;2.45;;;0.90;;
44137;SDS011;29800;55.942;37.314;2023-03-13T07:52:08;1.83;;;1.08;;
44137;SDS011;29800;55.942;37.314;2023-03-13T07:54:34;3.72;;;1.15;;
44137;SDS011;29800;55.942;37.314;2023-03-13T07:57:01;2.70;;;1.08;;
44137;SDS011;29800;55.942;37.314;2023-03-13T07:59:27;2.08;;;1.00;;
44137;SDS011;29800;55.942;37.314;2023-03-13T08:01:54;4.20;;;0.90;;
44137;SDS011;29800;55.942;37.314;2023-03-13T08:04:20;1.80;;;0.93;;
44137;SDS011;29800;55.942;37.314;2023-03-13T08:06:46;1.83;;;0.88;;
44137;SDS011;29800;55.942;37.314;2023-03-13T08:09:13;2.50;;;1.00;;
44137;SDS011;29800;55.942;37.314;2023-03-13T08:11:39;2.08;;;0.98;;
44137;SDS011;29800;55.942;37.314;2023-03-13T08:14:05;3.83;;;1.20;;
44137;SDS011;29800;55.942;37.314;2023-03-13T08:16:33;2.80;;;0.80;;
44137;SDS011;29800;55.942;37.314;2023-03-13T08:19:01;2.20;;;1.00;;
44137;SDS011;29800;55.942;37.314;2023-03-13T08:21:33;2.30;;;1.00;;
44137;SDS011;29800;55.942;37.314;2023-03-13T08:24:02;3.33;;;1.10;;
44137;SDS011;29800;55.942;37.314;2023-03-13T08:26:31;3.08;;;1.20;;
44137;SDS011;29800;55.942;37.314;2023-03-13T08:29:00;3.65;;;1.25;;
44137;SDS011;29800;55.942;37.314;2023-03-13T08:31:30;2.72;;;1.10;;
44137;SDS011;29800;55.942;37.314;2023-03-13T08:33:58;3.17;;;1.00;;
44137;SDS011;29800;55.942;37.314;2023-03-13T08:36:25;1.98;;;1.05;;
44137;SDS011;29800;55.942;37.314;2023-03-13T08:38:54;2.53;;;1.20;;
44137;SDS011;29800;55.942;37.314;2023-03-13T08:41:25;1.67;;;0.88;;
44137;SDS011;29800;55.942;37.314;2023-03-13T08:43:56;2.75;;;1.00;;
44137;SDS011;29800;55.942;37.314;2023-03-13T08:46:23;2.45;;;0.90;;
44137;SDS011;29800;55.942;37.314;2023-03-13T08:48:50;2.83;;;0.90;;
44137;SDS011;29800;55.942;37.314;2023-03-13T08:51:18;1.65;;;0.82;;
44137;SDS011;29800;55.942;37.314;2023-03-13T08:53:45;2.67;;;1.02;;
44137;SDS011;29800;55.942;37.314;2023-03-13T08:56:13;2.35;;;0.90;;
44137;SDS011;29800;55.942;37.314;2023-03-13T08:58:41;2.00;;;1.00;;
44137;SDS011;29800;55.942;37.314;2023-03-13T09:01:08;3.17;;;1.10;;
44137;SDS011;29800;55.942;37.314;2023-03-13T09:03:36;3.03;;;0.93;;
44137;SDS011;29800;55.942;37.314;2023-03-13T09:06:03;1.77;;;0.80;;
44137;SDS011;29800;55.942;37.314;2023-03-13T09:08:30;3.03;;;0.90;;
44137;SDS011;29800;55.942;37.314;2023-03-13T09:11:00;2.80;;;1.02;;
44137;SDS011;29800;55.942;37.314;2023-03-13T09:13:29;1.50;;;0.88;;
44137;SDS011;29800;55.942;37.314;2023-03-13T09:16:00;2.30;;;1.10;;
44137;SDS011;29800;55.942;37.314;2023-03-13T09:18:31;2.20;;;1.03;;
44137;SDS011;29800;55.942;37.314;2023-03-13T09:20:58;2.92;;;1.10;;
44137;SDS011;29800;55.942;37.314;2023-03-13T09:23:25;2.17;;;1.15;;
44137;SDS011;29800;55.942;37.314;2023-03-13T09:25:52;2.40;;;1.00;;
44137;SDS011;29800;55.942;37.314;2023-03-13T09:28:20;2.88;;;1.10;;
44137;SDS011;29800;55.942;37.314;2023-03-13T09:30:46;4.35;;;0.98;;
44137;SDS011;29800;55.942;37.314;2023-03-13T09:33:16;2.25;;;1.20;;
44137;SDS011;29800;55.942;37.314;2023-03-13T09:35:43;3.60;;;1.20;;
44137;SDS011;29800;55.942;37.314;2023-03-13T09:38:16;1.90;;;1.00;;
44137;SDS011;29800;55.942;37.314;2023-03-13T09:40:44;4.30;;;1.10;;
44137;SDS011;29800;55.942;37.314;2023-03-13T09:43:18;1.98;;;1.05;;
44137;SDS011;29800;55.942;37.314;2023-03-13T09:45:58;2.10;;;1.00;;
44137;SDS011;29800;55.942;37.314;2023-03-13T09:48:33;4.00;;;1.13;;
44137;SDS011;29800;55.942;37.314;2023-03-13T09:51:18;2.78;;;1.10;;
44137;SDS011;29800;55.942;37.314;2023-03-13T09:56:31;3.35;;;1.05;;
44137;SDS011;29800;55.942;37.314;2023-03-13T09:59:21;2.63;;;1.13;;
44137;SDS011;29800;55.942;37.314;2023-03-13T10:01:54;2.08;;;1.00;;
44137;SDS011;29800;55.942;37.314;2023-03-13T10:04:34;2.28;;;1.00;;
44137;SDS011;29800;55.942;37.314;2023-03-13T10:07:09;4.95;;;1.77;;
44137;SDS011;29800;55.942;37.314;2023-03-13T10:09:36;3.00;;;1.55;;
44137;SDS011;29800;55.942;37.314;2023-03-13T10:14:45;2.47;;;1.27;;
44137;SDS011;29800;55.942;37.314;2023-03-13T10:17:38;4.72;;;1.42;;
44137;SDS011;29800;55.942;37.314;2023-03-13T10:22:53;2.00;;;0.90;;
44137;SDS011;29800;55.942;37.314;2023-03-13T10:25:34;6.97;;;2.38;;
44137;SDS011;29800;55.942;37.314;2023-03-13T10:28:03;2.03;;;1.00;;
44137;SDS011;29800;55.942;37.314;2023-03-13T10:30:31;1.20;;;0.88;;
44137;SDS011;29800;55.942;37.314;2023-03-13T10:35:43;2.50;;;1.10;;
44137;SDS011;29800;55.942;37.314;2023-03-13T10:38:11;4.38;;;1.40;;
44137;SDS011;29800;55.942;37.314;2023-03-13T10:40:39;2.30;;;1.10;;
44137;SDS011;29800;55.942;37.314;2023-03-13T10:43:17;3.15;;;1.13;;
44137;SDS011;29800;55.942;37.314;2023-03-13T10:45:45;2.50;;;0.90;;
44137;SDS011;29800;55.942;37.314;2023-03-13T10:50:47;2.08;;;1.10;;
44137;SDS011;29800;55.942;37.314;2023-03-13T10:55:48;2.38;;;1.10;;
44137;SDS011;29800;55.942;37.314;2023-03-13T10:58:29;3.20;;;1.05;;
44137;SDS011;29800;55.942;37.314;2023-03-13T11:01:20;1.83;;;0.95;;
44137;SDS011;29800;55.942;37.314;2023-03-13T11:03:52;2.22;;;0.95;;
44137;SDS011;29800;55.942;37.314;2023-03-13T11:08:48;2.38;;;0.82;;
44137;SDS011;29800;55.942;37.314;2023-03-13T11:11:18;2.33;;;1.00;;
44137;SDS011;29800;55.942;37.314;2023-03-13T11:13:45;2.17;;;1.00;;
44137;SDS011;29800;55.942;37.314;2023-03-13T11:18:40;3.47;;;1.00;;
44137;SDS011;29800;55.942;37.314;2023-03-13T11:21:16;1.30;;;0.82;;
44137;SDS011;29800;55.942;37.314;2023-03-13T11:23:52;1.75;;;0.80;;
44137;SDS011;29800;55.942;37.314;2023-03-13T11:26:41;2.70;;;1.00;;
44137;SDS011;29800;55.942;37.314;2023-03-13T11:35:20;1.83;;;0.98;;
44137;SDS011;29800;55.942;37.314;2023-03-13T11:37:47;2.08;;;0.85;;
44137;SDS011;29800;55.942;37.314;2023-03-13T11:40:24;2.80;;;0.80;;
44137;SDS011;29800;55.942;37.314;2023-03-13T11:50:48;1.40;;;0.90;;
44137;SDS011;29800;55.942;37.314;2023-03-13T11:55:57;2.05;;;1.17;;
44137;SDS011;29800;55.942;37.314;2023-03-13T12:01:17;2.22;;;1.00;;
44137;SDS011;29800;55.942;37.314;2023-03-13T12:07:04;1.17;;;0.68;;
44137;SDS011;29800;55.942;37.314;2023-03-13T12:12:25;1.45;;;0.77;;
44137;SDS011;29800;55.942;37.314;2023-03-13T12:18:04;1.67;;;0.68;;
44137;SDS011;29800;55.942;37.314;2023-03-13T12:21:14;2.78;;;0.85;;
44137;SDS011;29800;55.942;37.314;2023-03-13T12:23:51;1.60;;;0.80;;
44137;SDS011;29800;55.942;37.314;2023-03-13T12:27:04;1.23;;;0.70;;
44137;SDS011;29800;55.942;37.314;2023-03-13T12:29:54;1.15;;;0.63;;
44137;SDS011;29800;55.942;37.314;2023-03-13T12:32:33;1.73;;;0.73;;
44137;SDS011;29800;55.942;37.314;2023-03-13T12:35:29;0.88;;;0.60;;
44137;SDS011;29800;55.942;37.314;2023-03-13T12:38:16;1.10;;;0.57;;
44137;SDS011;29800;55.942;37.314;2023-03-13T12:41:13;1.23;;;0.60;;
44137;SDS011;29800;55.942;37.314;2023-03-13T12:43:43;1.98;;;0.85;;
44137;SDS011;29800;55.942;37.314;2023-03-13T12:46:17;1.33;;;0.60;;
44137;SDS011;29800;55.942;37.314;2023-03-13T12:54:47;1.83;;;0.90;;
44137;SDS011;29800;55.942;37.314;2023-03-13T13:00:14;1.05;;;0.70;;
44137;SDS011;29800;55.942;37.314;2023-03-13T13:02:45;1.38;;;0.65;;
44137;SDS011;29800;55.942;37.314;2023-03-13T13:05:18;0.88;;;0.43;;
44137;SDS011;29800;55.942;37.314;2023-03-13T13:07:53;1.08;;;0.55;;
44137;SDS011;29800;55.942;37.314;2023-03-13T13:10:21;2.47;;;0.73;;
44137;SDS011;29800;55.942;37.314;2023-03-13T13:15:58;1.73;;;0.90;;
44137;SDS011;29800;55.942;37.314;2023-03-13T13:18:27;1.80;;;0.98;;
44137;SDS011;29800;55.942;37.314;2023-03-13T13:29:50;1.80;;;0.90;;
44137;SDS011;29800;55.942;37.314;2023-03-13T13:37:23;1.35;;;0.70;;
44137;SDS011;29800;55.942;37.314;2023-03-13T13:39:51;1.13;;;0.52;;
44137;SDS011;29800;55.942;37.314;2023-03-13T13:47:26;2.78;;;1.15;;
44137;SDS011;29800;55.942;37.314;2023-03-13T13:49:55;3.40;;;1.00;;
44137;SDS011;29800;55.942;37.314;2023-03-13T13:52:46;1.75;;;0.70;;
44137;SDS011;29800;55.942;37.314;2023-03-13T13:57:58;1.00;;;0.52;;
44137;SDS011;29800;55.942;37.314;2023-03-13T14:00:39;2.13;;;0.73;;
44137;SDS011;29800;55.942;37.314;2023-03-13T14:03:15;2.05;;;0.80;;
44137;SDS011;29800;55.942;37.314;2023-03-13T14:05:46;1.00;;;0.70;;
44137;SDS011;29800;55.942;37.314;2023-03-13T14:08:31;1.48;;;0.70;;
44137;SDS011;29800;55.942;37.314;2023-03-13T14:11:06;2.65;;;0.90;;
44137;SDS011;29800;55.942;37.314;2023-03-13T14:16:37;2.55;;;0.88;;
44137;SDS011;29800;55.942;37.314;2023-03-13T14:19:04;3.17;;;0.80;;
44137;SDS011;29800;55.942;37.314;2023-03-13T14:21:30;1.10;;;0.55;;
44137;SDS011;29800;55.942;37.314;2023-03-13T14:23:59;2.30;;;0.70;;
44137;SDS011;29800;55.942;37.314;2023-03-13T14:26:26;1.63;;;0.88;;
44137;SDS011;29800;55.942;37.314;2023-03-13T14:28:55;1.73;;;0.60;;
44137;SDS011;29800;55.942;37.314;2023-03-13T14:33:52;2.30;;;0.77;;
44137;SDS011;29800;55.942;37.314;2023-03-13T14:36:18;1.65;;;0.65;;
44137;SDS011;29800;55.942;37.314;2023-03-13T14:38:55;2.83;;;0.68;;
44137;SDS011;29800;55.942;37.314;2023-03-13T14:41:31;1.52;;;0.70;;
44137;SDS011;29800;55.942;37.314;2023-03-13T14:44:05;1.20;;;0.73;;
44137;SDS011;29800;55.942;37.314;2023-03-13T14:46:42;1.45;;;0.60;;
44137;SDS011;29800;55.942;37.314;2023-03-13T14:51:38;3.70;;;1.10;;
44137;SDS011;29800;55.942;37.314;2023-03-13T14:54:05;1.27;;;0.55;;
44137;SDS011;29800;55.942;37.314;2023-03-13T14:57:00;2.05;;;1.00;;
44137;SDS011;29800;55.942;37.314;2023-03-13T14:59:27;2.47;;;0.77;;
44137;SDS011;29800;55.942;37.314;2023-03-13T15:01:59;1.50;;;0.70;;
44137;SDS011;29800;55.942;37.314;2023-03-13T15:07:55;1.70;;;0.75;;
44137;SDS011;29800;55.942;37.314;2023-03-13T15:12:56;1.67;;;0.80;;
44137;SDS011;29800;55.942;37.314;2023-03-13T15:15:22;2.30;;;0.82;;
44137;SDS011;29800;55.942;37.314;2023-03-13T15:17:49;2.13;;;0.90;;
44137;SDS011;29800;55.942;37.314;2023-03-13T15:20:16;2.70;;;1.00;;
44137;SDS011;29800;55.942;37.314;2023-03-13T15:22:43;1.75;;;1.00;;
44137;SDS011;29800;55.942;37.314;2023-03-13T15:27:45;2.80;;;0.80;;
44137;SDS011;29800;55.942;37.314;2023-03-13T15:30:19;1.67;;;0.85;;
44137;SDS011;29800;55.942;37.314;2023-03-13T15:32:49;3.05;;;0.80;;
44137;SDS011;29800;55.942;37.314;2023-03-13T15:37:56;4.25;;;1.10;;
44137;SDS011;29800;55.942;37.314;2023-03-13T15:40:23;2.17;;;1.00;;
44137;SDS011;29800;55.942;37.314;2023-03-13T15:42:50;2.28;;;1.17;;
44137;SDS011;29800;55.942;37.314;2023-03-13T15:45:17;2.17;;;1.00;;
44137;SDS011;29800;55.942;37.314;2023-03-13T15:47:44;2.47;;;0.90;;
44137;SDS011;29800;55.942;37.314;2023-03-13T15:50:11;2.47;;;1.00;;
44137;SDS011;29800;55.942;37.314;2023-03-13T15:52:38;4.07;;;1.50;;
44137;SDS011;29800;55.942;37.314;2023-03-13T15:55:05;5.00;;;1.70;;
44137;SDS011;29800;55.942;37.314;2023-03-13T15:57:35;2.75;;;1.40;;
44137;SDS011;29800;55.942;37.314;2023-03-13T16:00:05;5.45;;;1.83;;
44137;SDS011;29800;55.942;37.314;2023-03-13T16:02:37;2.25;;;1.20;;
44137;SDS011;29800;55.942;37.314;2023-03-13T16:05:03;3.65;;;1.30;;
44137;SDS011;29800;55.942;37.314;2023-03-13T16:07:30;3.05;;;1.02;;
44137;SDS011;29800;55.942;37.314;2023-03-13T16:09:56;5.38;;;1.70;;
44137;SDS011;29800;55.942;37.314;2023-03-13T16:12:22;5.72;;;1.90;;
44137;SDS011;29800;55.942;37.314;2023-03-13T16:14:49;2.92;;;1.60;;
44137;SDS011;29800;55.942;37.314;2023-03-13T16:17:16;4.18;;;2.20;;
44137;SDS011;29800;55.942;37.314;2023-03-13T16:19:45;5.07;;;2.80;;
44137;SDS011;29800;55.942;37.314;2023-03-13T16:22:12;3.63;;;1.92;;
44137;SDS011;29800;55.942;37.314;2023-03-13T16:24:38;7.32;;;3.08;;
44137;SDS011;29800;55.942;37.314;2023-03-13T16:27:10;8.98;;;3.70;;
44137;SDS011;29800;55.942;37.314;2023-03-13T16:29:38;10.55;;;5.18;;
44137;SDS011;29800;55.942;37.314;2023-03-13T16:32:05;3.97;;;1.75;;
44137;SDS011;29800;55.942;37.314;2023-03-13T16:34:31;9.05;;;4.88;;
44137;SDS011;29800;55.942;37.314;2023-03-13T16:36:58;8.05;;;3.55;;
44137;SDS011;29800;55.942;37.314;2023-03-13T16:39:24;4.00;;;1.73;;
44137;SDS011;29800;55.942;37.314;2023-03-13T16:41:50;4.82;;;1.70;;
44137;SDS011;29800;55.942;37.314;2023-03-13T16:44:16;3.45;;;1.35;;
44137;SDS011;29800;55.942;37.314;2023-03-13T16:46:42;3.47;;;1.50;;
44137;SDS011;29800;55.942;37.314;2023-03-13T16:49:11;3.65;;;1.30;;
44137;SDS011;29800;55.942;37.314;2023-03-13T16:51:39;3.67;;;1.30;;
44137;SDS011;29800;55.942;37.314;2023-03-13T16:54:06;2.20;;;1.25;;
44137;SDS011;29800;55.942;37.314;2023-03-13T16:56:34;2.20;;;1.30;;
44137;SDS011;29800;55.942;37.314;2023-03-13T16:59:03;3.17;;;1.50;;